sensor_id;sensor_type;location;lat;lon;timestamp;temperature;humidity
18163;DHT22;9206;50.994;4.538;2024-03-25T00:06:15;4.30;99.90
18163;DHT22;9206;50.994;4.538;2024-03-25T00:09:10;4.30;99.90
18163;DHT22;9206;50.994;4.538;2024-03-25T00:12:01;4.30;99.90
18163;DHT22;9206;50.994;4.538;2024-03-25T00:14:53;4.30;99.90
18163;DHT22;9206;50.994;4.538;2024-03-25T00:17:43;4.30;99.90
18163;DHT22;9206;50.994;4.538;2024-03-25T00:20:30;4.30;99.90
18163;DHT22;9206;50.994;4.538;2024-03-25T00:23:17;4.30;99.90
18163;DHT22;9206;50.994;4.538;2024-03-25T00:29:53;4.20;99.90
18163;DHT22;9206;50.994;4.538;2024-03-25T00:32:43;4.20;99.90
18163;DHT22;9206;50.994;4.538;2024-03-25T00:35:29;4.20;99.90
18163;DHT22;9206;50.994;4.538;2024-03-25T00:38:16;4.20;99.90
18163;DHT22;9206;50.994;4.538;2024-03-25T00:41:04;4.20;99.90
18163;DHT22;9206;50.994;4.538;2024-03-25T00:43:54;4.20;99.90
18163;DHT22;9206;50.994;4.538;2024-03-25T00:46:45;4.10;99.90
18163;DHT22;9206;50.994;4.538;2024-03-25T00:53:17;4.00;99.90
18163;DHT22;9206;50.994;4.538;2024-03-25T00:56:08;4.00;99.90
18163;DHT22;9206;50.994;4.538;2024-03-25T00:58:55;4.00;99.90
18163;DHT22;9206;50.994;4.538;2024-03-25T01:09:10;3.80;99.90
18163;DHT22;9206;50.994;4.538;2024-03-25T01:12:01;3.70;99.90
18163;DHT22;9206;50.994;4.538;2024-03-25T01:14:54;3.60;99.90
18163;DHT22;9206;50.994;4.538;2024-03-25T01:17:42;3.70;99.90
18163;DHT22;9206;50.994;4.538;2024-03-25T01:20:29;3.70;99.90
18163;DHT22;9206;50.994;4.538;2024-03-25T01:27:03;3.60;99.90
18163;DHT22;9206;50.994;4.538;2024-03-25T01:29:50;3.50;99.90
18163;DHT22;9206;50.994;4.538;2024-03-25T01:32:40;3.50;99.90
18163;DHT22;9206;50.994;4.538;2024-03-25T01:35:28;3.40;99.90
18163;DHT22;9206;50.994;4.538;2024-03-25T01:38:17;3.40;99.90
18163;DHT22;9206;50.994;4.538;2024-03-25T01:41:13;3.50;99.90
18163;DHT22;9206;50.994;4.538;2024-03-25T01:44:04;3.40;99.90
18163;DHT22;9206;50.994;4.538;2024-03-25T01:46:54;3.30;99.90
18163;DHT22;9206;50.994;4.538;2024-03-25T01:49:43;3.30;99.90
18163;DHT22;9206;50.994;4.538;2024-03-25T01:52:36;3.20;99.90
18163;DHT22;9206;50.994;4.538;2024-03-25T01:55:26;3.10;99.90
18163;DHT22;9206;50.994;4.538;2024-03-25T01:58:17;3.00;99.90
18163;DHT22;9206;50.994;4.538;2024-03-25T02:01:08;2.90;99.90
18163;DHT22;9206;50.994;4.538;2024-03-25T02:04:00;2.80;99.90
18163;DHT22;9206;50.994;4.538;2024-03-25T02:06:50;2.70;99.90
18163;DHT22;9206;50.994;4.538;2024-03-25T02:13:22;2.60;99.90
18163;DHT22;9206;50.994;4.538;2024-03-25T02:49:30;2.10;99.90
18163;DHT22;9206;50.994;4.538;2024-03-25T03:18:37;2.10;99.90
18163;DHT22;9206;50.994;4.538;2024-03-25T04:13:15;1.50;99.90
18163;DHT22;9206;50.994;4.538;2024-03-25T04:16:03;1.40;99.90
18163;DHT22;9206;50.994;4.538;2024-03-25T04:44:48;1.60;99.90
18163;DHT22;9206;50.994;4.538;2024-03-25T04:54:58;1.50;99.90
18163;DHT22;9206;50.994;4.538;2024-03-25T05:01:31;1.40;99.90
18163;DHT22;9206;50.994;4.538;2024-03-25T05:08:00;1.40;99.90
18163;DHT22;9206;50.994;4.538;2024-03-25T05:14:28;1.20;99.90
18163;DHT22;9206;50.994;4.538;2024-03-25T05:17:16;1.20;99.90
18163;DHT22;9206;50.994;4.538;2024-03-25T05:20:05;1.20;99.90
18163;DHT22;9206;50.994;4.538;2024-03-25T06:07:19;2.60;99.90
18163;DHT22;9206;50.994;4.538;2024-03-25T06:10:06;3.20;99.90
18163;DHT22;9206;50.994;4.538;2024-03-25T06:12:53;3.50;99.90
18163;DHT22;9206;50.994;4.538;2024-03-25T06:23:05;4.50;99.90
18163;DHT22;9206;50.994;4.538;2024-03-25T06:25:53;5.00;99.90
18163;DHT22;9206;50.994;4.538;2024-03-25T06:32:24;5.80;99.90
18163;DHT22;9206;50.994;4.538;2024-03-25T06:39:15;6.10;99.90
18163;DHT22;9206;50.994;4.538;2024-03-25T06:42:01;6.10;99.90
18163;DHT22;9206;50.994;4.538;2024-03-25T06:52:20;6.40;99.90
18163;DHT22;9206;50.994;4.538;2024-03-25T06:55:25;6.40;99.90
18163;DHT22;9206;50.994;4.538;2024-03-25T06:58:19;6.40;99.90
18163;DHT22;9206;50.994;4.538;2024-03-25T07:04:49;6.30;99.90
18163;DHT22;9206;50.994;4.538;2024-03-25T07:15:31;6.40;99.90
18163;DHT22;9206;50.994;4.538;2024-03-25T07:18:23;6.60;99.90
18163;DHT22;9206;50.994;4.538;2024-03-25T07:28:36;7.10;99.90
18163;DHT22;9206;50.994;4.538;2024-03-25T07:38:50;7.50;99.90
18163;DHT22;9206;50.994;4.538;2024-03-25T07:45:21;7.80;99.90
18163;DHT22;9206;50.994;4.538;2024-03-25T07:48:08;8.00;99.90
18163;DHT22;9206;50.994;4.538;2024-03-25T07:54:40;8.10;99.90
18163;DHT22;9206;50.994;4.538;2024-03-25T07:57:28;8.20;99.90
18163;DHT22;9206;50.994;4.538;2024-03-25T08:00:15;8.40;99.90
18163;DHT22;9206;50.994;4.538;2024-03-25T08:14:14;8.90;99.90
18163;DHT22;9206;50.994;4.538;2024-03-25T08:17:01;9.30;99.90
18163;DHT22;9206;50.994;4.538;2024-03-25T08:19:56;9.60;99.90
18163;DHT22;9206;50.994;4.538;2024-03-25T08:26:32;10.30;99.90
18163;DHT22;9206;50.994;4.538;2024-03-25T08:36:52;13.10;99.90
18163;DHT22;9206;50.994;4.538;2024-03-25T08:50:53;16.10;99.90
18163;DHT22;9206;50.994;4.538;2024-03-25T09:12:12;17.00;99.90
18163;DHT22;9206;50.994;4.538;2024-03-25T09:15:00;17.90;99.90
18163;DHT22;9206;50.994;4.538;2024-03-25T09:17:50;18.80;99.90
18163;DHT22;9206;50.994;4.538;2024-03-25T09:20:38;18.90;99.90
18163;DHT22;9206;50.994;4.538;2024-03-25T09:23:30;19.30;99.90
18163;DHT22;9206;50.994;4.538;2024-03-25T09:26:27;19.50;99.90
18163;DHT22;9206;50.994;4.538;2024-03-25T09:32:42;18.60;99.90
18163;DHT22;9206;50.994;4.538;2024-03-25T09:35:37;18.40;99.90
18163;DHT22;9206;50.994;4.538;2024-03-25T09:38:24;17.60;99.90
18163;DHT22;9206;50.994;4.538;2024-03-25T09:41:11;18.30;99.90
18163;DHT22;9206;50.994;4.538;2024-03-25T09:44:00;18.70;99.90
18163;DHT22;9206;50.994;4.538;2024-03-25T09:46:50;19.60;99.90
18163;DHT22;9206;50.994;4.538;2024-03-25T09:49:41;19.80;99.90
18163;DHT22;9206;50.994;4.538;2024-03-25T09:56:10;19.80;99.90
18163;DHT22;9206;50.994;4.538;2024-03-25T09:59:00;20.00;99.90
18163;DHT22;9206;50.994;4.538;2024-03-25T10:13:36;18.60;99.90
18163;DHT22;9206;50.994;4.538;2024-03-25T10:20:13;19.10;99.90
18163;DHT22;9206;50.994;4.538;2024-03-25T10:23:02;19.50;99.90
18163;DHT22;9206;50.994;4.538;2024-03-25T10:25:52;20.10;99.90
18163;DHT22;9206;50.994;4.538;2024-03-25T14:48:15;15.20;99.90
18163;DHT22;9206;50.994;4.538;2024-03-25T15:02:06;14.70;99.90
18163;DHT22;9206;50.994;4.538;2024-03-25T15:16:02;15.00;99.90
18163;DHT22;9206;50.994;4.538;2024-03-25T15:29:55;14.40;99.90
18163;DHT22;9206;50.994;4.538;2024-03-25T15:32:44;14.50;99.90
18163;DHT22;9206;50.994;4.538;2024-03-25T16:36:59;13.20;99.90
18163;DHT22;9206;50.994;4.538;2024-03-25T16:39:46;13.20;99.90
18163;DHT22;9206;50.994;4.538;2024-03-25T16:42:32;13.20;99.90
18163;DHT22;9206;50.994;4.538;2024-03-25T16:45:20;13.10;99.90
18163;DHT22;9206;50.994;4.538;2024-03-25T16:48:08;13.00;99.90
18163;DHT22;9206;50.994;4.538;2024-03-25T16:51:00;12.80;99.90
18163;DHT22;9206;50.994;4.538;2024-03-25T16:53:48;12.80;99.90
18163;DHT22;9206;50.994;4.538;2024-03-25T16:56:35;12.70;99.90
18163;DHT22;9206;50.994;4.538;2024-03-25T16:59:22;12.70;99.90
18163;DHT22;9206;50.994;4.538;2024-03-25T17:02:12;12.70;99.90
18163;DHT22;9206;50.994;4.538;2024-03-25T17:04:58;12.70;99.90
18163;DHT22;9206;50.994;4.538;2024-03-25T17:07:45;12.60;99.90
18163;DHT22;9206;50.994;4.538;2024-03-25T17:10:33;12.60;99.90
18163;DHT22;9206;50.994;4.538;2024-03-25T17:13:19;12.60;99.90
18163;DHT22;9206;50.994;4.538;2024-03-25T17:16:07;12.50;99.90
18163;DHT22;9206;50.994;4.538;2024-03-25T17:18:53;12.50;99.90
18163;DHT22;9206;50.994;4.538;2024-03-25T17:21:40;12.40;99.90
18163;DHT22;9206;50.994;4.538;2024-03-25T17:24:26;12.30;99.90
18163;DHT22;9206;50.994;4.538;2024-03-25T17:27:16;12.20;99.90
18163;DHT22;9206;50.994;4.538;2024-03-25T17:30:04;12.20;99.90
18163;DHT22;9206;50.994;4.538;2024-03-25T17:32:55;12.10;99.90
18163;DHT22;9206;50.994;4.538;2024-03-25T17:35:41;12.00;99.90
18163;DHT22;9206;50.994;4.538;2024-03-25T17:38:27;11.90;99.90
18163;DHT22;9206;50.994;4.538;2024-03-25T17:41:15;11.80;99.90
18163;DHT22;9206;50.994;4.538;2024-03-25T17:44:11;11.80;99.90
18163;DHT22;9206;50.994;4.538;2024-03-25T17:46:58;11.70;99.90
18163;DHT22;9206;50.994;4.538;2024-03-25T17:49:45;11.60;99.90
18163;DHT22;9206;50.994;4.538;2024-03-25T17:52:34;11.50;99.90
18163;DHT22;9206;50.994;4.538;2024-03-25T17:55:20;11.50;99.90
18163;DHT22;9206;50.994;4.538;2024-03-25T17:58:10;11.40;99.90
18163;DHT22;9206;50.994;4.538;2024-03-25T18:04:04;11.20;99.90
18163;DHT22;9206;50.994;4.538;2024-03-25T18:06:51;11.10;99.90
18163;DHT22;9206;50.994;4.538;2024-03-25T18:09:43;11.10;99.90
18163;DHT22;9206;50.994;4.538;2024-03-25T18:12:37;11.00;99.90
18163;DHT22;9206;50.994;4.538;2024-03-25T18:15:23;11.00;99.90
18163;DHT22;9206;50.994;4.538;2024-03-25T18:18:12;10.90;99.90
18163;DHT22;9206;50.994;4.538;2024-03-25T18:21:01;10.80;99.90
18163;DHT22;9206;50.994;4.538;2024-03-25T18:23:49;10.80;99.90
18163;DHT22;9206;50.994;4.538;2024-03-25T18:26:35;10.70;99.90
18163;DHT22;9206;50.994;4.538;2024-03-25T18:29:24;10.70;99.90
18163;DHT22;9206;50.994;4.538;2024-03-25T18:32:20;10.60;99.90
18163;DHT22;9206;50.994;4.538;2024-03-25T18:35:14;10.50;99.90
18163;DHT22;9206;50.994;4.538;2024-03-25T18:38:01;10.40;99.90
18163;DHT22;9206;50.994;4.538;2024-03-25T18:40:48;10.40;99.90
18163;DHT22;9206;50.994;4.538;2024-03-25T18:43:34;10.30;99.90
18163;DHT22;9206;50.994;4.538;2024-03-25T18:46:20;10.20;99.90
18163;DHT22;9206;50.994;4.538;2024-03-25T18:49:07;10.20;99.90
18163;DHT22;9206;50.994;4.538;2024-03-25T18:51:55;10.10;99.90
18163;DHT22;9206;50.994;4.538;2024-03-25T18:54:42;10.00;99.90
18163;DHT22;9206;50.994;4.538;2024-03-25T18:57:28;10.00;99.90
18163;DHT22;9206;50.994;4.538;2024-03-25T19:00:15;10.00;99.90
18163;DHT22;9206;50.994;4.538;2024-03-25T19:03:02;9.90;99.90
18163;DHT22;9206;50.994;4.538;2024-03-25T19:05:52;9.90;99.90
18163;DHT22;9206;50.994;4.538;2024-03-25T19:08:40;9.80;99.90
18163;DHT22;9206;50.994;4.538;2024-03-25T19:11:26;9.70;99.90
18163;DHT22;9206;50.994;4.538;2024-03-25T19:14:12;9.60;99.90
18163;DHT22;9206;50.994;4.538;2024-03-25T19:16:59;9.60;99.90
18163;DHT22;9206;50.994;4.538;2024-03-25T19:19:45;9.60;99.90
18163;DHT22;9206;50.994;4.538;2024-03-25T19:22:31;9.60;99.90
18163;DHT22;9206;50.994;4.538;2024-03-25T19:25:22;9.60;99.90
18163;DHT22;9206;50.994;4.538;2024-03-25T19:28:08;9.50;99.90
18163;DHT22;9206;50.994;4.538;2024-03-25T19:30:55;9.50;99.90
18163;DHT22;9206;50.994;4.538;2024-03-25T19:33:41;9.40;99.90
18163;DHT22;9206;50.994;4.538;2024-03-25T19:36:28;9.40;99.90
18163;DHT22;9206;50.994;4.538;2024-03-25T19:39:15;9.40;99.90
18163;DHT22;9206;50.994;4.538;2024-03-25T19:42:03;9.30;99.90
18163;DHT22;9206;50.994;4.538;2024-03-25T19:44:49;9.30;99.90
18163;DHT22;9206;50.994;4.538;2024-03-25T19:47:35;9.30;99.90
18163;DHT22;9206;50.994;4.538;2024-03-25T19:50:21;9.30;99.90
18163;DHT22;9206;50.994;4.538;2024-03-25T19:53:08;9.20;99.90
18163;DHT22;9206;50.994;4.538;2024-03-25T19:55:57;9.20;99.90
18163;DHT22;9206;50.994;4.538;2024-03-25T19:58:49;9.10;99.90
18163;DHT22;9206;50.994;4.538;2024-03-25T20:01:41;9.00;99.90
18163;DHT22;9206;50.994;4.538;2024-03-25T20:04:29;8.90;99.90
18163;DHT22;9206;50.994;4.538;2024-03-25T20:07:15;8.90;99.90
18163;DHT22;9206;50.994;4.538;2024-03-25T20:10:01;8.90;99.90
18163;DHT22;9206;50.994;4.538;2024-03-25T20:12:47;8.90;99.90
18163;DHT22;9206;50.994;4.538;2024-03-25T20:15:35;8.90;99.90
18163;DHT22;9206;50.994;4.538;2024-03-25T20:18:21;8.80;99.90
18163;DHT22;9206;50.994;4.538;2024-03-25T20:21:09;8.70;99.90
18163;DHT22;9206;50.994;4.538;2024-03-25T20:23:55;8.80;99.90
18163;DHT22;9206;50.994;4.538;2024-03-25T20:26:45;8.70;99.90
18163;DHT22;9206;50.994;4.538;2024-03-25T20:29:31;8.70;99.90
18163;DHT22;9206;50.994;4.538;2024-03-25T20:32:19;8.60;99.90
18163;DHT22;9206;50.994;4.538;2024-03-25T20:35:05;8.60;99.90
18163;DHT22;9206;50.994;4.538;2024-03-25T20:37:54;8.60;99.90
18163;DHT22;9206;50.994;4.538;2024-03-25T20:40:40;8.60;99.90
18163;DHT22;9206;50.994;4.538;2024-03-25T20:43:27;8.60;99.90
18163;DHT22;9206;50.994;4.538;2024-03-25T20:46:15;8.50;99.90
18163;DHT22;9206;50.994;4.538;2024-03-25T20:49:02;8.50;99.90
18163;DHT22;9206;50.994;4.538;2024-03-25T20:51:52;8.40;99.90
18163;DHT22;9206;50.994;4.538;2024-03-25T20:54:41;8.50;99.90
18163;DHT22;9206;50.994;4.538;2024-03-25T20:57:29;8.40;99.90
18163;DHT22;9206;50.994;4.538;2024-03-25T21:00:15;8.40;99.90
18163;DHT22;9206;50.994;4.538;2024-03-25T21:03:13;8.40;99.90
18163;DHT22;9206;50.994;4.538;2024-03-25T21:06:02;8.40;99.90
18163;DHT22;9206;50.994;4.538;2024-03-25T21:08:51;8.40;99.90
18163;DHT22;9206;50.994;4.538;2024-03-25T21:12:14;8.40;99.90
18163;DHT22;9206;50.994;4.538;2024-03-25T21:15:04;8.30;99.90
18163;DHT22;9206;50.994;4.538;2024-03-25T21:17:53;8.30;99.90
18163;DHT22;9206;50.994;4.538;2024-03-25T21:20:43;8.40;99.90
18163;DHT22;9206;50.994;4.538;2024-03-25T21:23:34;8.40;99.90
18163;DHT22;9206;50.994;4.538;2024-03-25T21:26:22;8.40;99.90
18163;DHT22;9206;50.994;4.538;2024-03-25T21:29:09;8.40;99.90
18163;DHT22;9206;50.994;4.538;2024-03-25T21:31:57;8.40;99.90
18163;DHT22;9206;50.994;4.538;2024-03-25T21:34:46;8.40;99.90
18163;DHT22;9206;50.994;4.538;2024-03-25T21:37:36;8.30;99.90
18163;DHT22;9206;50.994;4.538;2024-03-25T21:40:28;8.40;99.90
18163;DHT22;9206;50.994;4.538;2024-03-25T21:43:18;8.30;99.90
18163;DHT22;9206;50.994;4.538;2024-03-25T21:46:04;8.30;99.90
18163;DHT22;9206;50.994;4.538;2024-03-25T21:48:53;8.40;99.90
18163;DHT22;9206;50.994;4.538;2024-03-25T21:51:43;8.40;99.90
18163;DHT22;9206;50.994;4.538;2024-03-25T21:54:31;8.30;99.90
18163;DHT22;9206;50.994;4.538;2024-03-25T21:57:19;8.30;99.90
18163;DHT22;9206;50.994;4.538;2024-03-25T22:00:08;8.30;99.90
18163;DHT22;9206;50.994;4.538;2024-03-25T22:02:57;8.30;99.90
18163;DHT22;9206;50.994;4.538;2024-03-25T22:05:46;8.30;99.90
18163;DHT22;9206;50.994;4.538;2024-03-25T22:08:35;8.30;99.90
18163;DHT22;9206;50.994;4.538;2024-03-25T22:11:23;8.20;99.90
18163;DHT22;9206;50.994;4.538;2024-03-25T22:14:11;8.20;99.90
18163;DHT22;9206;50.994;4.538;2024-03-25T22:17:01;8.30;99.90
18163;DHT22;9206;50.994;4.538;2024-03-25T22:19:50;8.30;99.90
18163;DHT22;9206;50.994;4.538;2024-03-25T22:22:39;8.30;99.90
18163;DHT22;9206;50.994;4.538;2024-03-25T22:25:32;8.30;99.90
18163;DHT22;9206;50.994;4.538;2024-03-25T22:28:20;8.30;99.90
18163;DHT22;9206;50.994;4.538;2024-03-25T22:31:11;8.20;99.90
18163;DHT22;9206;50.994;4.538;2024-03-25T22:34:00;8.30;99.90
18163;DHT22;9206;50.994;4.538;2024-03-25T22:36:46;8.30;99.90
18163;DHT22;9206;50.994;4.538;2024-03-25T22:39:33;8.30;99.90
18163;DHT22;9206;50.994;4.538;2024-03-25T22:42:25;8.30;99.90
18163;DHT22;9206;50.994;4.538;2024-03-25T22:45:12;8.20;99.90
18163;DHT22;9206;50.994;4.538;2024-03-25T22:48:03;8.20;99.90
18163;DHT22;9206;50.994;4.538;2024-03-25T22:50:55;8.20;99.90
18163;DHT22;9206;50.994;4.538;2024-03-25T22:53:42;8.20;99.90
18163;DHT22;9206;50.994;4.538;2024-03-25T22:56:28;8.30;99.90
18163;DHT22;9206;50.994;4.538;2024-03-25T22:59:14;8.30;99.90
18163;DHT22;9206;50.994;4.538;2024-03-25T23:02:03;8.30;99.90
18163;DHT22;9206;50.994;4.538;2024-03-25T23:04:54;8.30;99.90
18163;DHT22;9206;50.994;4.538;2024-03-25T23:07:43;8.30;99.90
18163;DHT22;9206;50.994;4.538;2024-03-25T23:10:33;8.30;99.90
18163;DHT22;9206;50.994;4.538;2024-03-25T23:13:25;8.30;99.90
18163;DHT22;9206;50.994;4.538;2024-03-25T23:16:12;8.30;99.90
18163;DHT22;9206;50.994;4.538;2024-03-25T23:18:58;8.30;99.90
18163;DHT22;9206;50.994;4.538;2024-03-25T23:21:47;8.20;99.90
18163;DHT22;9206;50.994;4.538;2024-03-25T23:24:34;8.20;99.90
18163;DHT22;9206;50.994;4.538;2024-03-25T23:27:23;8.20;99.90
18163;DHT22;9206;50.994;4.538;2024-03-25T23:30:11;8.20;99.90
18163;DHT22;9206;50.994;4.538;2024-03-25T23:32:59;8.20;99.90
18163;DHT22;9206;50.994;4.538;2024-03-25T23:35:48;8.20;99.90
18163;DHT22;9206;50.994;4.538;2024-03-25T23:38:38;8.20;99.90
18163;DHT22;9206;50.994;4.538;2024-03-25T23:41:25;8.10;99.90
18163;DHT22;9206;50.994;4.538;2024-03-25T23:44:12;8.10;99.90
18163;DHT22;9206;50.994;4.538;2024-03-25T23:46:58;8.00;99.90
18163;DHT22;9206;50.994;4.538;2024-03-25T23:49:47;8.00;99.90
18163;DHT22;9206;50.994;4.538;2024-03-25T23:52:35;8.00;99.90
18163;DHT22;9206;50.994;4.538;2024-03-25T23:55:23;7.90;99.90
18163;DHT22;9206;50.994;4.538;2024-03-25T23:58:12;7.90;99.90
